Latest Weather Observations for Middle Percy Island

IDQ60801

Issued at 6:02 pm EST Wednesday 2 September 2015 (issued every 30 minutes, with the page automatically refreshed every 10 minutes)

About weather observations | Map of weather stations | Latest weather observations for QLD | Other Formats
Station Details ID: 200001 Name: MIDDLE PERCY ISLAND Lat: -21.66 Lon: 150.27 Height: 208.7 m
Data from the previous 72 hours. | See also: Recent months at Middle Percy Island
Date/Time
EST
Temp
°C
App
Temp
°C
Dew
Point
Rel
Hum
%
Delta-T
°C
Wind Press
QNH
hPa
Press
MSL
hPa
Rain
since 9 am
mm
Dir
 
Spd
km/h
Gust
km/h
Spd
kts
Gust
kts
02/06:00pm 20.7 17.0 19.2 91 1.0 - 37 43 20 23 1016.3 1015.5 -
02/05:30pm 21.0 19.0 19.1 89 1.2 - 28 35 15 19 1016.4 - -
02/05:00pm 21.3 - 19.0 87 1.5 - - - - - 1016.4 1015.6 -
02/04:30pm 21.6 - 19.0 85 1.7 - - - - - 1016.4 - -
02/04:00pm 22.0 - 18.8 82 2.0 - - - - - 1016.5 1015.7 -
02/03:30pm 22.3 - 18.7 80 2.3 - - - - - 1016.5 - -
02/03:00pm 22.1 - 18.7 81 2.2 - - - - - 1016.8 1016.0 0.0
02/02:30pm 22.2 - 18.4 79 2.4 - - - - - 1017.2 - -
02/02:00pm 22.8 - 18.6 77 2.7 - - - - - 1017.5 1016.7 -
02/01:30pm 22.8 - 18.6 77 2.7 - - - - - 1018.0 - -
02/01:00pm 22.3 - 17.9 76 2.8 - - - - - 1018.4 1017.6 -
02/12:30pm 22.5 - 18.1 76 2.8 - - - - - 1019.0 - -
02/12:00pm 23.4 - 18.5 74 3.1 - - - - - 1019.4 1018.6 -
02/11:30am 23.2 - 17.9 72 3.3 - - - - - 1019.7 - -
02/11:00am 23.1 - 18.4 75 3.0 - - - - - 1020.4 1019.6 -
02/10:30am 22.7 - 17.6 73 3.2 - - - - - 1020.7 - -
02/10:00am 22.9 - 17.8 73 3.2 - - - - - 1020.7 1019.9 -
02/09:30am 22.6 - 17.5 73 3.2 - - - - - 1020.8 - -
02/09:00am 22.4 - 17.8 75 2.9 - - - - - 1020.7 1019.9 0.2
02/08:30am 20.7 - 17.7 83 1.9 - - - - - 1020.7 - -
02/08:00am 20.6 - 17.4 82 2.0 - - - - - 1020.1 1019.3 -
02/07:30am 20.5 - 17.1 81 2.1 - - - - - 1019.8 - -
02/07:00am 20.1 - 16.9 82 2.0 - - - - - 1019.4 1018.6 -
02/06:30am 19.6 - 16.6 83 1.8 - - - - - 1019.3 - -
02/06:00am 19.7 - 16.5 82 1.9 - - - - - 1019.0 1018.2 -
02/05:30am 19.5 - 16.5 83 1.8 - - - - - 1018.4 - -
02/05:00am 19.4 - 16.6 84 1.7 - - - - - 1017.9 1017.1 -
02/04:30am 19.3 - 16.0 81 2.0 - - - - - 1017.8 - -
02/04:00am 19.4 - 16.1 81 2.0 - - - - - 1017.9 1017.1 -
02/03:30am 19.3 - 15.8 80 2.1 - - - - - 1017.9 - -
02/03:00am 19.3 - 15.8 80 2.1 - - - - - 1018.0 1017.2 0.0
02/02:30am 19.4 - 15.7 79 2.2 - - - - - 1018.1 - -
02/02:00am 19.3 - 15.6 79 2.2 - - - - - 1018.2 1017.4 -
02/01:30am 19.4 - 15.5 78 2.3 - - - - - 1018.1 - -
02/01:00am 19.3 - 15.2 77 2.4 - - - - - 1018.1 1017.3 -
02/12:30am 19.2 - 14.9 76 2.5 - - - - - 1018.1 - -
02/12:00am 19.3 - 14.8 75 2.6 - - - - - 1018.0 1017.2 -
 
Date/Time
EST
Temp
°C
App
Temp
°C
Dew
Point
Rel
Hum
%
Delta-T
°C
Wind Press
QNH
hPa
Press
MSL
hPa
Rain
since 9 am
mm
Dir
 
Spd
km/h
Gust
km/h
Spd
kts
Gust
kts
01/11:30pm 19.2 - 14.9 76 2.5 - - - - - 1018.0 - -
01/11:00pm 19.2 - 15.1 77 2.4 - - - - - 1018.0 1017.2 -
01/10:30pm 19.0 - 14.9 77 2.4 - - - - - 1018.1 - -
01/10:00pm 19.1 - 15.0 77 2.4 - - - - - 1018.0 1017.2 -
01/09:30pm 18.9 - 14.8 77 2.4 - - - - - 1018.1 - -
01/09:00pm 19.1 - 15.0 77 2.4 - - - - - 1017.8 1017.0 0.0
01/08:30pm 19.1 - 14.6 75 2.6 - - - - - 1017.5 - -
01/08:00pm 18.9 - 14.4 75 2.6 - - - - - 1017.4 1016.6 -
01/07:30pm 18.9 - 14.2 74 2.7 - - - - - 1017.2 - -
01/07:00pm 18.8 - 14.1 74 2.7 - - - - - 1016.9 1016.1 -
01/06:30pm 18.8 - 14.1 74 2.7 - - - - - 1016.6 - -
01/06:00pm 18.9 - 14.0 73 2.8 - - - - - 1016.4 1015.6 -
01/05:30pm 19.2 - 13.8 71 3.1 - - - - - 1016.2 - -
01/05:00pm 19.7 - 13.4 67 3.6 - - - - - 1016.0 1015.1 -
01/04:30pm 20.1 - 13.6 66 3.8 - - - - - 1016.0 - -
01/04:00pm 20.7 - 13.9 65 4.0 - - - - - 1015.8 1014.9 -
01/03:30pm 20.8 - 14.5 67 3.7 - - - - - 1016.0 - -
01/03:00pm 20.9 - 14.8 68 3.6 - - - - - 1016.2 1015.4 0.2
01/02:30pm 22.3 - 16.1 68 3.8 - - - - - 1016.7 - -
01/02:00pm 21.7 - 16.4 72 3.2 - - - - - 1017.1 1016.3 -
01/01:30pm 19.9 - 16.3 80 2.2 - - - - - 1017.6 - -
01/01:00pm 19.8 - 16.1 79 2.2 - - - - - 1018.0 1017.2 -
01/12:30pm 19.7 - 16.5 82 1.9 - - - - - 1018.4 - -
01/12:00pm 19.7 - 16.3 81 2.1 - - - - - 1018.7 1017.9 -
01/11:30am 19.7 - 16.0 79 2.2 - - - - - 1019.2 - -
01/11:00am 19.8 - 15.7 77 2.5 - - - - - 1019.6 1018.8 -
01/10:30am 20.1 - 15.5 75 2.8 - - - - - 1019.9 - -
01/10:00am 21.2 - 15.3 69 3.5 - - - - - 1020.2 1019.4 -
01/09:30am 21.0 - 15.5 71 3.3 - - - - - 1020.2 - -
01/09:00am 21.3 - 16.7 75 2.8 - - - - - 1020.1 1019.5 0.0
01/08:30am 19.7 - 15.8 78 2.3 - - - - - 1019.9 - -
01/08:00am 19.6 - 14.6 73 2.9 - - - - - 1019.6 1019.0 -
01/07:30am 19.7 - 14.9 74 2.8 - - - - - 1019.2 - -
01/07:00am 18.9 - 15.8 82 1.8 - - - - - 1018.9 1018.3 -
01/06:30am 17.8 - 15.6 87 1.3 - - - - - 1018.5 - -
01/06:00am 17.6 - 15.4 87 1.3 - - - - - 1018.0 1017.4 -
01/05:30am 17.2 - 15.2 88 1.2 - - - - - 1017.6 - -
01/05:00am 17.4 - 14.9 85 1.5 - - - - - 1017.3 1016.7 -
01/04:30am 17.5 - 15.3 87 1.3 - - - - - 1017.0 - -
01/04:00am 17.4 - 15.2 87 1.3 - - - - - 1016.8 1016.2 -
01/03:30am 17.6 - 15.2 86 1.4 - - - - - 1016.9 - -
01/03:00am 17.8 - 15.2 85 1.5 - - - - - 1017.0 1016.4 0.0
01/02:30am 18.0 - 15.3 84 1.6 - - - - - 1017.1 - -
01/02:00am 18.0 - 15.4 85 1.5 - - - - - 1017.3 1016.7 -
01/01:30am 17.7 - 15.3 86 1.4 - - - - - 1017.3 - -
01/01:00am 17.5 - 15.1 86 1.4 - - - - - 1017.5 1016.9 -
01/12:30am 17.6 - 15.4 87 1.3 - - - - - 1017.8 - -
01/12:00am 17.7 - 15.3 86 1.4 - - - - - 1017.8 1017.2 -
 
Date/Time
EST
Temp
°C
App
Temp
°C
Dew
Point
Rel
Hum
%
Delta-T
°C
Wind Press
QNH
hPa
Press
MSL
hPa
Rain
since 9 am
mm
Dir
 
Spd
km/h
Gust
km/h
Spd
kts
Gust
kts
31/11:30pm 17.8 - 15.2 85 1.5 - - - - - 1017.8 - -
31/11:00pm 17.6 - 15.4 87 1.3 - - - - - 1017.7 1017.1 -
31/10:30pm 17.5 - 15.0 85 1.5 - - - - - 1017.7 - -
31/10:00pm 17.2 - 14.8 86 1.4 - - - - - 1017.8 1017.2 -
31/09:30pm 17.5 - 15.0 85 1.5 - - - - - 1017.9 - -
31/09:00pm 17.6 - 14.7 83 1.7 - - - - - 1017.9 1017.3 0.0
31/08:30pm 17.7 - 14.4 81 1.9 - - - - - 1017.6 - -
31/08:00pm 17.7 - 14.2 80 2.0 - - - - - 1017.4 1016.8 -
31/07:30pm 17.9 - 14.2 79 2.1 - - - - - 1017.0 - -
31/07:00pm 17.9 - 14.2 79 2.1 - - - - - 1016.5 1015.8 -
31/06:30pm 17.6 - 13.7 78 2.2 - - - - - 1016.1 - -
31/06:00pm 17.9 - 13.6 76 2.5 - - - - - 1015.8 1015.1 -
31/05:30pm 18.3 - 13.2 72 2.9 - - - - - 1015.7 - -
31/05:00pm 19.1 - 13.1 68 3.4 - - - - - 1015.6 1014.9 -
31/04:30pm 19.9 - 12.9 64 4.0 - - - - - 1015.6 - -
31/04:00pm 20.2 - 12.9 63 4.2 - - - - - 1015.4 1014.7 -
31/03:30pm 20.6 - 13.1 62 4.3 - - - - - 1015.4 - -
31/03:00pm 20.8 - 13.3 62 4.3 - - - - - 1015.8 1015.1 0.0
31/02:30pm 20.8 - 12.8 60 4.6 - - - - - 1016.2 - -
31/02:00pm 21.2 - 13.6 62 4.4 - - - - - 1016.5 1015.8 -
31/01:30pm 20.6 - 13.3 63 4.2 - - - - - 1016.9 - -
31/01:00pm 21.3 - 14.0 63 4.3 - - - - - 1017.1 1016.5 -
31/12:30pm 21.0 - 13.4 62 4.4 - - - - - 1017.3 - -
31/12:00pm 21.5 - 13.7 61 4.5 - - - - - 1017.7 1017.1 -
31/11:30am 21.4 - 14.1 63 4.3 - - - - - 1018.1 - -
31/11:00am 21.3 - 14.0 63 4.3 - - - - - 1018.6 1018.0 -
31/10:30am 20.8 - 13.5 63 4.2 - - - - - 1019.1 - -
31/10:00am 20.6 - 14.7 69 3.5 - - - - - 1019.4 1018.8 -
31/09:30am 19.6 - 14.2 71 3.2 - - - - - 1019.4 - -
31/09:00am 19.7 - 14.9 74 2.8 - - - - - 1019.2 1018.6 0.2
31/08:30am 19.2 - 14.7 75 2.6 - - - - - 1018.9 - -
31/08:00am 18.6 - 14.7 78 2.3 - - - - - 1018.5 1017.9 -
31/07:30am 18.4 - 14.9 80 2.1 - - - - - 1018.2 - -
31/07:00am 18.0 - 15.3 84 1.6 - - - - - 1017.9 1017.3 -
31/06:30am 17.6 - 15.2 86 1.4 - - - - - 1017.5 - -
31/06:00am 17.1 - 14.4 84 1.6 - - - - - 1017.2 1016.6 -
31/05:30am 17.2 - 15.5 90 1.0 - - - - - 1016.9 - -
31/05:00am 17.2 - 15.9 92 0.8 - - - - - 1016.7 1016.1 -
31/04:30am 17.2 - 16.6 96 0.4 - - - - - 1016.7 - -
31/04:00am 18.2 - 17.9 98 0.2 - - - - - 1016.8 1016.2 -
31/03:30am 18.2 - 17.9 98 0.2 - - - - - 1016.8 - -
31/03:00am 18.1 - 17.6 97 0.3 - - - - - 1016.9 1016.3 0.0
31/02:30am 18.1 - 17.6 97 0.3 - - - - - 1017.1 - -
31/02:00am 18.2 - 17.6 96 0.4 - - - - - 1017.2 1016.6 -
31/01:30am 18.2 - 17.6 96 0.4 - - - - - 1017.2 - -
31/01:00am 18.6 - 18.1 97 0.3 - - - - - 1017.3 1016.7 -
31/12:30am 18.7 - 18.0 96 0.4 - - - - - 1017.5 - -
31/12:00am 18.6 - 17.8 95 0.5 - - - - - 1017.6 1017.0 -
 
Date/Time
EST
Temp
°C
App
Temp
°C
Dew
Point
Rel
Hum
%
Delta-T
°C
Wind Press
QNH
hPa
Press
MSL
hPa
Rain
since 9 am
mm
Dir
 
Spd
km/h
Gust
km/h
Spd
kts
Gust
kts
30/11:30pm 18.7 - 17.4 92 0.8 - - - - - 1017.7 - -
30/11:00pm 19.0 - 16.0 83 1.8 - - - - - 1017.8 1017.2 -
30/10:30pm 19.1 - 16.0 82 1.9 - - - - - 1017.9 - -
30/10:00pm 19.1 - 16.0 82 1.9 - - - - - 1017.9 1017.3 -
30/09:30pm 19.0 - 16.0 83 1.8 - - - - - 1017.9 - -
30/09:00pm 18.9 - 16.5 86 1.5 - - - - - 1017.8 1017.2 0.0
30/08:30pm 18.9 - 16.5 86 1.5 - - - - - 1017.7 - -
30/08:00pm 18.9 - 16.1 84 1.7 - - - - - 1017.4 1016.8 -
30/07:30pm 19.0 - 16.2 84 1.7 - - - - - 1017.0 - -
30/07:00pm 19.0 - 17.0 88 1.2 - - - - - 1016.6 1016.0 -
30/06:30pm 18.8 - 16.8 88 1.2 - - - - - 1016.5 - -

Other Formats:

Comma delimited format used in spreadsheet applications
http://www.bom.gov.au/fwo/IDQ60801/IDQ60801.94372.axf

JavaScript Object Notation format (JSON) in row-major order
http://www.bom.gov.au/fwo/IDQ60801/IDQ60801.94372.json